sensor_id;sensor_type;location;lat;lon;timestamp;temperature;humidity
14057;DHT22;7103;54.300;10.180;2023-04-03T00:00:38;0.90;1.00
14057;DHT22;7103;54.300;10.180;2023-04-03T00:03:05;0.90;1.00
14057;DHT22;7103;54.300;10.180;2023-04-03T00:05:32;0.90;1.00
14057;DHT22;7103;54.300;10.180;2023-04-03T00:07:59;0.90;1.00
14057;DHT22;7103;54.300;10.180;2023-04-03T00:10:28;0.90;1.00
14057;DHT22;7103;54.300;10.180;2023-04-03T00:12:54;0.90;1.00
14057;DHT22;7103;54.300;10.180;2023-04-03T00:15:21;0.80;1.00
14057;DHT22;7103;54.300;10.180;2023-04-03T00:17:48;0.90;1.00
14057;DHT22;7103;54.300;10.180;2023-04-03T00:20:15;0.90;1.00
14057;DHT22;7103;54.300;10.180;2023-04-03T00:22:42;0.80;1.00
14057;DHT22;7103;54.300;10.180;2023-04-03T00:25:09;0.80;1.00
14057;DHT22;7103;54.300;10.180;2023-04-03T00:27:37;0.80;1.00
14057;DHT22;7103;54.300;10.180;2023-04-03T00:30:05;0.80;1.00
14057;DHT22;7103;54.300;10.180;2023-04-03T00:32:32;0.80;1.00
14057;DHT22;7103;54.300;10.180;2023-04-03T00:34:59;0.80;1.00
14057;DHT22;7103;54.300;10.180;2023-04-03T00:37:26;0.80;1.00
14057;DHT22;7103;54.300;10.180;2023-04-03T00:39:53;0.80;1.00
14057;DHT22;7103;54.300;10.180;2023-04-03T00:42:20;0.80;1.00
14057;DHT22;7103;54.300;10.180;2023-04-03T00:47:16;0.80;1.00
14057;DHT22;7103;54.300;10.180;2023-04-03T00:49:44;0.70;1.00
14057;DHT22;7103;54.300;10.180;2023-04-03T00:52:15;0.60;1.00
14057;DHT22;7103;54.300;10.180;2023-04-03T00:54:43;0.60;1.00
14057;DHT22;7103;54.300;10.180;2023-04-03T00:57:11;0.60;1.00
14057;DHT22;7103;54.300;10.180;2023-04-03T00:59:43;0.50;1.00
14057;DHT22;7103;54.300;10.180;2023-04-03T01:02:11;0.50;1.00
14057;DHT22;7103;54.300;10.180;2023-04-03T01:04:43;0.50;1.00
14057;DHT22;7103;54.300;10.180;2023-04-03T01:07:22;0.40;1.00
14057;DHT22;7103;54.300;10.180;2023-04-03T01:09:53;0.40;1.00
14057;DHT22;7103;54.300;10.180;2023-04-03T01:14:59;0.40;1.00
14057;DHT22;7103;54.300;10.180;2023-04-03T01:17:38;0.40;1.00
14057;DHT22;7103;54.300;10.180;2023-04-03T01:25:30;0.30;1.00
14057;DHT22;7103;54.300;10.180;2023-04-03T01:27:57;0.30;1.00
14057;DHT22;7103;54.300;10.180;2023-04-03T01:30:29;0.30;1.00
14057;DHT22;7103;54.300;10.180;2023-04-03T01:32:57;0.20;1.00
14057;DHT22;7103;54.300;10.180;2023-04-03T01:35:24;0.20;1.00
14057;DHT22;7103;54.300;10.180;2023-04-03T01:37:51;0.30;1.00
14057;DHT22;7103;54.300;10.180;2023-04-03T01:40:18;0.30;1.00
14057;DHT22;7103;54.300;10.180;2023-04-03T01:42:45;0.30;1.00
14057;DHT22;7103;54.300;10.180;2023-04-03T01:45:11;0.20;1.00
14057;DHT22;7103;54.300;10.180;2023-04-03T01:47:38;0.10;1.00
14057;DHT22;7103;54.300;10.180;2023-04-03T01:50:05;0.00;1.00
14057;DHT22;7103;54.300;10.180;2023-04-03T01:52:32;-0.10;1.00
14057;DHT22;7103;54.300;10.180;2023-04-03T01:54:59;-0.10;1.00
14057;DHT22;7103;54.300;10.180;2023-04-03T01:57:27;0.30;1.00
14057;DHT22;7103;54.300;10.180;2023-04-03T01:59:54;0.10;1.00
14057;DHT22;7103;54.300;10.180;2023-04-03T02:02:21;0.10;1.00
14057;DHT22;7103;54.300;10.180;2023-04-03T02:04:48;0.10;1.00
14057;DHT22;7103;54.300;10.180;2023-04-03T02:07:14;0.20;1.00
14057;DHT22;7103;54.300;10.180;2023-04-03T02:09:41;0.20;1.00
14057;DHT22;7103;54.300;10.180;2023-04-03T02:12:08;0.20;1.00
14057;DHT22;7103;54.300;10.180;2023-04-03T02:14:35;0.10;1.00
14057;DHT22;7103;54.300;10.180;2023-04-03T02:17:02;0.00;1.00
14057;DHT22;7103;54.300;10.180;2023-04-03T02:19:31;0.10;1.00
14057;DHT22;7103;54.300;10.180;2023-04-03T02:21:58;0.10;1.00
14057;DHT22;7103;54.300;10.180;2023-04-03T02:24:25;0.00;1.00
14057;DHT22;7103;54.300;10.180;2023-04-03T02:26:52;-0.10;1.00
14057;DHT22;7103;54.300;10.180;2023-04-03T02:29:19;-0.20;1.00
14057;DHT22;7103;54.300;10.180;2023-04-03T02:31:46;-0.30;1.00
14057;DHT22;7103;54.300;10.180;2023-04-03T02:34:13;-0.40;1.00
14057;DHT22;7103;54.300;10.180;2023-04-03T02:36:40;-0.40;1.00
14057;DHT22;7103;54.300;10.180;2023-04-03T02:39:07;-0.50;1.00
14057;DHT22;7103;54.300;10.180;2023-04-03T02:41:34;-0.50;1.00
14057;DHT22;7103;54.300;10.180;2023-04-03T02:44:03;-0.40;1.00
14057;DHT22;7103;54.300;10.180;2023-04-03T02:46:31;-0.30;1.00
14057;DHT22;7103;54.300;10.180;2023-04-03T02:48:58;-0.30;1.00
14057;DHT22;7103;54.300;10.180;2023-04-03T02:51:25;-0.30;1.00
14057;DHT22;7103;54.300;10.180;2023-04-03T02:53:52;-0.30;1.00
14057;DHT22;7103;54.300;10.180;2023-04-03T02:56:19;-0.10;1.00
14057;DHT22;7103;54.300;10.180;2023-04-03T02:58:47;-0.40;1.00
14057;DHT22;7103;54.300;10.180;2023-04-03T03:01:14;-0.50;1.00
14057;DHT22;7103;54.300;10.180;2023-04-03T03:03:41;-0.50;1.00
14057;DHT22;7103;54.300;10.180;2023-04-03T03:06:10;-0.30;1.00
14057;DHT22;7103;54.300;10.180;2023-04-03T03:08:38;-0.30;1.00
14057;DHT22;7103;54.300;10.180;2023-04-03T03:11:05;-0.20;1.00
14057;DHT22;7103;54.300;10.180;2023-04-03T03:13:32;-0.20;1.00
14057;DHT22;7103;54.300;10.180;2023-04-03T03:15:59;-0.30;1.00
14057;DHT22;7103;54.300;10.180;2023-04-03T03:18:27;-0.40;1.00
14057;DHT22;7103;54.300;10.180;2023-04-03T03:20:55;-0.50;1.00
14057;DHT22;7103;54.300;10.180;2023-04-03T03:23:24;-0.40;1.00
14057;DHT22;7103;54.300;10.180;2023-04-03T03:26:05;-0.50;1.00
14057;DHT22;7103;54.300;10.180;2023-04-03T03:28:33;-0.50;1.00
14057;DHT22;7103;54.300;10.180;2023-04-03T03:31:01;-0.40;1.00
14057;DHT22;7103;54.300;10.180;2023-04-03T03:33:28;-0.30;1.00
14057;DHT22;7103;54.300;10.180;2023-04-03T03:35:55;-0.30;1.00
14057;DHT22;7103;54.300;10.180;2023-04-03T03:38:22;-0.30;1.00
14057;DHT22;7103;54.300;10.180;2023-04-03T03:40:50;-0.30;1.00
14057;DHT22;7103;54.300;10.180;2023-04-03T03:43:17;-0.40;1.00
14057;DHT22;7103;54.300;10.180;2023-04-03T03:45:44;-0.40;1.00
14057;DHT22;7103;54.300;10.180;2023-04-03T03:48:12;-0.40;1.00
14057;DHT22;7103;54.300;10.180;2023-04-03T03:50:39;-0.10;1.00
14057;DHT22;7103;54.300;10.180;2023-04-03T03:53:06;-0.30;1.00
14057;DHT22;7103;54.300;10.180;2023-04-03T03:55:33;-0.40;1.00
14057;DHT22;7103;54.300;10.180;2023-04-03T03:58:00;-0.40;1.00
14057;DHT22;7103;54.300;10.180;2023-04-03T04:00:28;-0.50;1.00
14057;DHT22;7103;54.300;10.180;2023-04-03T04:02:55;-0.60;1.00
14057;DHT22;7103;54.300;10.180;2023-04-03T04:05:25;-0.70;1.00
14057;DHT22;7103;54.300;10.180;2023-04-03T04:07:51;-0.70;1.00
14057;DHT22;7103;54.300;10.180;2023-04-03T04:10:18;-0.80;1.00
14057;DHT22;7103;54.300;10.180;2023-04-03T04:12:45;-0.80;1.00
14057;DHT22;7103;54.300;10.180;2023-04-03T04:15:12;-0.80;1.00
14057;DHT22;7103;54.300;10.180;2023-04-03T04:17:39;-0.80;1.00
14057;DHT22;7103;54.300;10.180;2023-04-03T04:20:06;-0.70;1.00
14057;DHT22;7103;54.300;10.180;2023-04-03T04:22:33;-0.80;1.00
14057;DHT22;7103;54.300;10.180;2023-04-03T04:25:00;-0.80;1.00
14057;DHT22;7103;54.300;10.180;2023-04-03T04:27:27;-0.80;1.00
14057;DHT22;7103;54.300;10.180;2023-04-03T04:29:54;-0.90;1.00
14057;DHT22;7103;54.300;10.180;2023-04-03T04:32:23;-1.00;1.00
14057;DHT22;7103;54.300;10.180;2023-04-03T04:34:49;-1.00;1.00
14057;DHT22;7103;54.300;10.180;2023-04-03T04:37:16;-1.10;1.00
14057;DHT22;7103;54.300;10.180;2023-04-03T04:39:43;-1.10;1.00
14057;DHT22;7103;54.300;10.180;2023-04-03T04:42:10;-1.20;1.00
14057;DHT22;7103;54.300;10.180;2023-04-03T04:44:42;-1.20;1.00
14057;DHT22;7103;54.300;10.180;2023-04-03T04:47:09;-1.20;1.00
14057;DHT22;7103;54.300;10.180;2023-04-03T04:49:36;-1.20;1.00
14057;DHT22;7103;54.300;10.180;2023-04-03T04:52:03;-1.10;1.00
14057;DHT22;7103;54.300;10.180;2023-04-03T04:54:30;-1.10;1.00
14057;DHT22;7103;54.300;10.180;2023-04-03T04:56:57;-1.10;1.00
14057;DHT22;7103;54.300;10.180;2023-04-03T04:59:24;-1.10;1.00
14057;DHT22;7103;54.300;10.180;2023-04-03T05:01:51;-1.20;1.00
14057;DHT22;7103;54.300;10.180;2023-04-03T05:04:17;-1.20;1.00
14057;DHT22;7103;54.300;10.180;2023-04-03T05:06:44;-1.10;1.00
14057;DHT22;7103;54.300;10.180;2023-04-03T05:09:11;-1.10;1.00
14057;DHT22;7103;54.300;10.180;2023-04-03T05:11:38;-1.00;1.00
14057;DHT22;7103;54.300;10.180;2023-04-03T05:14:06;-1.00;1.00
14057;DHT22;7103;54.300;10.180;2023-04-03T05:16:33;-1.10;1.00
14057;DHT22;7103;54.300;10.180;2023-04-03T05:19:00;-1.10;1.00
14057;DHT22;7103;54.300;10.180;2023-04-03T05:21:27;-1.00;1.00
14057;DHT22;7103;54.300;10.180;2023-04-03T05:23:59;-0.80;1.00
14057;DHT22;7103;54.300;10.180;2023-04-03T05:26:30;-0.90;1.00
14057;DHT22;7103;54.300;10.180;2023-04-03T05:28:57;-0.80;1.00
14057;DHT22;7103;54.300;10.180;2023-04-03T05:31:24;-0.80;1.00
14057;DHT22;7103;54.300;10.180;2023-04-03T05:33:51;-0.90;1.00
14057;DHT22;7103;54.300;10.180;2023-04-03T05:36:18;-1.00;1.00
14057;DHT22;7103;54.300;10.180;2023-04-03T05:38:46;-1.00;1.00
14057;DHT22;7103;54.300;10.180;2023-04-03T05:41:14;-0.90;1.00
14057;DHT22;7103;54.300;10.180;2023-04-03T05:43:41;-0.90;1.00
14057;DHT22;7103;54.300;10.180;2023-04-03T05:46:14;-0.80;1.00
14057;DHT22;7103;54.300;10.180;2023-04-03T05:48:43;-0.80;1.00
14057;DHT22;7103;54.300;10.180;2023-04-03T05:51:16;-0.80;1.00
14057;DHT22;7103;54.300;10.180;2023-04-03T05:53:44;-0.80;1.00
14057;DHT22;7103;54.300;10.180;2023-04-03T05:56:12;-0.70;1.00
14057;DHT22;7103;54.300;10.180;2023-04-03T05:58:38;-0.80;1.00
14057;DHT22;7103;54.300;10.180;2023-04-03T06:01:05;-0.70;1.00
14057;DHT22;7103;54.300;10.180;2023-04-03T06:03:32;-0.70;1.00
14057;DHT22;7103;54.300;10.180;2023-04-03T06:06:03;-0.70;1.00
14057;DHT22;7103;54.300;10.180;2023-04-03T06:08:30;-0.70;1.00
14057;DHT22;7103;54.300;10.180;2023-04-03T06:10:57;-0.70;1.00
14057;DHT22;7103;54.300;10.180;2023-04-03T06:13:24;-0.60;1.00
14057;DHT22;7103;54.300;10.180;2023-04-03T06:15:51;-0.70;1.00
14057;DHT22;7103;54.300;10.180;2023-04-03T06:18:18;-0.70;1.00
14057;DHT22;7103;54.300;10.180;2023-04-03T06:20:45;-0.70;1.00
14057;DHT22;7103;54.300;10.180;2023-04-03T06:23:12;-0.60;1.00
14057;DHT22;7103;54.300;10.180;2023-04-03T06:25:39;-0.50;1.00
14057;DHT22;7103;54.300;10.180;2023-04-03T06:28:08;-0.50;1.00
14057;DHT22;7103;54.300;10.180;2023-04-03T06:30:37;-0.30;1.00
14057;DHT22;7103;54.300;10.180;2023-04-03T06:33:04;-0.30;1.00
14057;DHT22;7103;54.300;10.180;2023-04-03T06:35:31;-0.30;1.00
14057;DHT22;7103;54.300;10.180;2023-04-03T06:37:58;-0.30;1.00
14057;DHT22;7103;54.300;10.180;2023-04-03T06:40:25;-0.20;1.00
14057;DHT22;7103;54.300;10.180;2023-04-03T06:42:53;-0.10;1.00
14057;DHT22;7103;54.300;10.180;2023-04-03T06:45:20;0.00;1.00
14057;DHT22;7103;54.300;10.180;2023-04-03T06:47:48;0.30;1.00
14057;DHT22;7103;54.300;10.180;2023-04-03T06:50:15;0.20;1.00
14057;DHT22;7103;54.300;10.180;2023-04-03T06:52:42;0.40;1.00
14057;DHT22;7103;54.300;10.180;2023-04-03T06:55:09;0.60;1.00
14057;DHT22;7103;54.300;10.180;2023-04-03T06:57:36;0.80;1.00
14057;DHT22;7103;54.300;10.180;2023-04-03T07:00:05;0.90;1.00
14057;DHT22;7103;54.300;10.180;2023-04-03T07:02:33;0.90;1.00
14057;DHT22;7103;54.300;10.180;2023-04-03T07:05:00;1.00;1.00
14057;DHT22;7103;54.300;10.180;2023-04-03T07:07:27;1.50;1.00
14057;DHT22;7103;54.300;10.180;2023-04-03T07:09:54;2.70;1.00
14057;DHT22;7103;54.300;10.180;2023-04-03T07:12:21;3.90;1.00
14057;DHT22;7103;54.300;10.180;2023-04-03T07:14:48;5.20;1.00
14057;DHT22;7103;54.300;10.180;2023-04-03T07:17:15;6.20;1.00
14057;DHT22;7103;54.300;10.180;2023-04-03T07:19:42;7.20;1.00
14057;DHT22;7103;54.300;10.180;2023-04-03T07:22:09;7.90;1.00
14057;DHT22;7103;54.300;10.180;2023-04-03T07:24:37;8.40;1.00
14057;DHT22;7103;54.300;10.180;2023-04-03T07:27:04;8.70;1.00
14057;DHT22;7103;54.300;10.180;2023-04-03T07:29:32;8.90;1.00
14057;DHT22;7103;54.300;10.180;2023-04-03T07:31:58;9.40;1.00
14057;DHT22;7103;54.300;10.180;2023-04-03T07:34:26;9.60;1.00
14057;DHT22;7103;54.300;10.180;2023-04-03T07:36:53;9.80;1.00
14057;DHT22;7103;54.300;10.180;2023-04-03T07:39:20;10.10;1.00
14057;DHT22;7103;54.300;10.180;2023-04-03T07:41:47;10.70;1.00
14057;DHT22;7103;54.300;10.180;2023-04-03T07:44:14;10.80;1.00
14057;DHT22;7103;54.300;10.180;2023-04-03T07:46:41;11.00;1.00
14057;DHT22;7103;54.300;10.180;2023-04-03T07:49:08;11.20;1.00
14057;DHT22;7103;54.300;10.180;2023-04-03T07:51:35;11.60;1.00
14057;DHT22;7103;54.300;10.180;2023-04-03T07:54:02;11.80;1.00
14057;DHT22;7103;54.300;10.180;2023-04-03T07:56:30;11.70;1.00
14057;DHT22;7103;54.300;10.180;2023-04-03T07:58:58;11.50;1.00
14057;DHT22;7103;54.300;10.180;2023-04-03T08:01:25;11.30;1.00
14057;DHT22;7103;54.300;10.180;2023-04-03T08:03:52;11.10;1.00
14057;DHT22;7103;54.300;10.180;2023-04-03T08:06:19;11.50;1.00
14057;DHT22;7103;54.300;10.180;2023-04-03T08:08:58;12.00;1.00
14057;DHT22;7103;54.300;10.180;2023-04-03T08:11:25;11.20;1.00
14057;DHT22;7103;54.300;10.180;2023-04-03T08:13:53;11.60;1.00
14057;DHT22;7103;54.300;10.180;2023-04-03T08:16:21;11.50;1.00
14057;DHT22;7103;54.300;10.180;2023-04-03T08:18:49;11.80;1.00
14057;DHT22;7103;54.300;10.180;2023-04-03T08:21:16;12.00;1.00
14057;DHT22;7103;54.300;10.180;2023-04-03T08:23:43;12.00;1.00
14057;DHT22;7103;54.300;10.180;2023-04-03T08:26:16;11.80;1.00
14057;DHT22;7103;54.300;10.180;2023-04-03T08:28:43;11.90;1.00
14057;DHT22;7103;54.300;10.180;2023-04-03T08:31:12;12.10;1.00
14057;DHT22;7103;54.300;10.180;2023-04-03T08:33:40;12.00;1.00
14057;DHT22;7103;54.300;10.180;2023-04-03T08:36:14;12.30;1.00
14057;DHT22;7103;54.300;10.180;2023-04-03T08:38:42;12.60;1.00
14057;DHT22;7103;54.300;10.180;2023-04-03T08:47:23;12.80;99.90
14057;DHT22;7103;54.300;10.180;2023-04-03T08:52:39;12.80;99.90
14057;DHT22;7103;54.300;10.180;2023-04-03T08:55:27;12.40;99.90
14057;DHT22;7103;54.300;10.180;2023-04-03T08:58:04;13.00;99.90
14057;DHT22;7103;54.300;10.180;2023-04-03T09:03:16;12.00;99.90
14057;DHT22;7103;54.300;10.180;2023-04-03T09:05:46;11.80;99.90
14057;DHT22;7103;54.300;10.180;2023-04-03T09:08:31;12.20;99.90
14057;DHT22;7103;54.300;10.180;2023-04-03T09:16:28;13.10;99.90
14057;DHT22;7103;54.300;10.180;2023-04-03T09:22:20;13.60;99.90
14057;DHT22;7103;54.300;10.180;2023-04-03T09:24:55;12.90;99.90
14057;DHT22;7103;54.300;10.180;2023-04-03T09:27:24;13.00;99.90
14057;DHT22;7103;54.300;10.180;2023-04-03T09:29:54;12.70;99.90
14057;DHT22;7103;54.300;10.180;2023-04-03T09:32:25;12.10;99.90
14057;DHT22;7103;54.300;10.180;2023-04-03T09:34:55;11.60;99.90
14057;DHT22;7103;54.300;10.180;2023-04-03T09:37:41;10.80;99.90
14057;DHT22;7103;54.300;10.180;2023-04-03T09:40:38;10.60;99.90
14057;DHT22;7103;54.300;10.180;2023-04-03T09:43:31;10.30;99.90
14057;DHT22;7103;54.300;10.180;2023-04-03T09:46:17;10.70;99.90
14057;DHT22;7103;54.300;10.180;2023-04-03T09:48:57;10.80;99.90
14057;DHT22;7103;54.300;10.180;2023-04-03T09:51:35;10.70;99.90
14057;DHT22;7103;54.300;10.180;2023-04-03T09:54:35;10.00;99.90
14057;DHT22;7103;54.300;10.180;2023-04-03T09:57:12;10.10;99.90
14057;DHT22;7103;54.300;10.180;2023-04-03T09:59:56;10.10;99.90
14057;DHT22;7103;54.300;10.180;2023-04-03T10:02:34;10.90;99.90
14057;DHT22;7103;54.300;10.180;2023-04-03T10:05:03;10.50;99.90
14057;DHT22;7103;54.300;10.180;2023-04-03T10:07:37;10.50;99.90
14057;DHT22;7103;54.300;10.180;2023-04-03T10:10:19;11.20;99.90
14057;DHT22;7103;54.300;10.180;2023-04-03T10:12:47;11.50;99.90
14057;DHT22;7103;54.300;10.180;2023-04-03T10:15:16;12.10;99.90
14057;DHT22;7103;54.300;10.180;2023-04-03T10:17:57;12.10;99.90
14057;DHT22;7103;54.300;10.180;2023-04-03T10:20:33;11.60;99.90
14057;DHT22;7103;54.300;10.180;2023-04-03T10:23:28;11.30;99.90
14057;DHT22;7103;54.300;10.180;2023-04-03T10:26:28;11.80;99.90
14057;DHT22;7103;54.300;10.180;2023-04-03T10:29:06;11.90;99.90
14057;DHT22;7103;54.300;10.180;2023-04-03T10:35:09;13.00;99.90
14057;DHT22;7103;54.300;10.180;2023-04-03T10:40:33;13.50;99.90
14057;DHT22;7103;54.300;10.180;2023-04-03T10:43:21;13.80;99.90
14057;DHT22;7103;54.300;10.180;2023-04-03T10:46:18;13.70;99.90
14057;DHT22;7103;54.300;10.180;2023-04-03T10:51:41;13.30;99.90
14057;DHT22;7103;54.300;10.180;2023-04-03T10:54:17;12.20;99.90
14057;DHT22;7103;54.300;10.180;2023-04-03T10:56:56;11.50;99.90
14057;DHT22;7103;54.300;10.180;2023-04-03T10:59:51;10.90;99.90
14057;DHT22;7103;54.300;10.180;2023-04-03T11:05:47;10.50;99.90
14057;DHT22;7103;54.300;10.180;2023-04-03T11:07:51;9.80;99.90
14057;DHT22;7103;54.300;10.180;2023-04-03T11:10:25;9.60;99.90
14057;DHT22;7103;54.300;10.180;2023-04-03T11:13:06;9.70;99.90
14057;DHT22;7103;54.300;10.180;2023-04-03T11:15:34;9.60;99.90
14057;DHT22;7103;54.300;10.180;2023-04-03T11:18:15;9.20;99.90
14057;DHT22;7103;54.300;10.180;2023-04-03T11:23:56;9.50;99.90
14057;DHT22;7103;54.300;10.180;2023-04-03T11:26:29;10.30;99.90
14057;DHT22;7103;54.300;10.180;2023-04-03T11:29:04;10.60;99.90
14057;DHT22;7103;54.300;10.180;2023-04-03T11:34:41;11.80;99.90
14057;DHT22;7103;54.300;10.180;2023-04-03T11:37:20;12.00;99.90
14057;DHT22;7103;54.300;10.180;2023-04-03T11:39:58;12.00;99.90
14057;DHT22;7103;54.300;10.180;2023-04-03T11:42:36;11.90;99.90
14057;DHT22;7103;54.300;10.180;2023-04-03T11:48:01;11.00;99.90
14057;DHT22;7103;54.300;10.180;2023-04-03T11:50:48;11.20;99.90
14057;DHT22;7103;54.300;10.180;2023-04-03T11:58:21;11.70;99.90
14057;DHT22;7103;54.300;10.180;2023-04-03T12:00:50;11.20;99.90
14057;DHT22;7103;54.300;10.180;2023-04-03T12:16:30;11.40;99.90
14057;DHT22;7103;54.300;10.180;2023-04-03T12:29:23;11.20;99.90
14057;DHT22;7103;54.300;10.180;2023-04-03T12:34:49;11.10;99.90
14057;DHT22;7103;54.300;10.180;2023-04-03T12:46:23;11.50;99.90
14057;DHT22;7103;54.300;10.180;2023-04-03T12:48:56;11.20;99.90
14057;DHT22;7103;54.300;10.180;2023-04-03T12:51:35;11.10;99.90
14057;DHT22;7103;54.300;10.180;2023-04-03T12:54:30;10.90;99.90
14057;DHT22;7103;54.300;10.180;2023-04-03T12:57:21;11.00;99.90
14057;DHT22;7103;54.300;10.180;2023-04-03T12:59:48;11.10;99.90
14057;DHT22;7103;54.300;10.180;2023-04-03T13:02:27;11.00;99.90
14057;DHT22;7103;54.300;10.180;2023-04-03T13:05:08;9.90;99.90
14057;DHT22;7103;54.300;10.180;2023-04-03T13:07:37;9.50;99.90
14057;DHT22;7103;54.300;10.180;2023-04-03T13:12:53;10.00;99.90
14057;DHT22;7103;54.300;10.180;2023-04-03T13:15:21;10.50;99.90
14057;DHT22;7103;54.300;10.180;2023-04-03T13:17:51;10.80;99.90
14057;DHT22;7103;54.300;10.180;2023-04-03T13:20:26;10.60;99.90
14057;DHT22;7103;54.300;10.180;2023-04-03T13:23:04;10.40;99.90
14057;DHT22;7103;54.300;10.180;2023-04-03T13:25:35;10.00;99.90
14057;DHT22;7103;54.300;10.180;2023-04-03T13:28:05;9.50;99.90
14057;DHT22;7103;54.300;10.180;2023-04-03T13:30:41;9.60;99.90
14057;DHT22;7103;54.300;10.180;2023-04-03T13:33:26;9.80;99.90
14057;DHT22;7103;54.300;10.180;2023-04-03T13:36:04;10.20;99.90
14057;DHT22;7103;54.300;10.180;2023-04-03T13:38:32;9.70;99.90
14057;DHT22;7103;54.300;10.180;2023-04-03T13:41:04;9.70;99.90
14057;DHT22;7103;54.300;10.180;2023-04-03T13:43:35;9.50;99.90
14057;DHT22;7103;54.300;10.180;2023-04-03T13:48:45;9.50;99.90
14057;DHT22;7103;54.300;10.180;2023-04-03T13:53:58;10.00;99.90
14057;DHT22;7103;54.300;10.180;2023-04-03T13:56:33;10.00;99.90
14057;DHT22;7103;54.300;10.180;2023-04-03T14:01:46;9.80;99.90
14057;DHT22;7103;54.300;10.180;2023-04-03T14:04:27;9.90;99.90
14057;DHT22;7103;54.300;10.180;2023-04-03T14:06:56;9.70;99.90
14057;DHT22;7103;54.300;10.180;2023-04-03T14:09:25;9.60;99.90
14057;DHT22;7103;54.300;10.180;2023-04-03T14:12:00;9.50;99.90
14057;DHT22;7103;54.300;10.180;2023-04-03T14:14:34;9.40;99.90
14057;DHT22;7103;54.300;10.180;2023-04-03T14:17:03;9.00;99.90
14057;DHT22;7103;54.300;10.180;2023-04-03T14:19:52;8.80;99.90
14057;DHT22;7103;54.300;10.180;2023-04-03T14:22:25;8.80;99.90
14057;DHT22;7103;54.300;10.180;2023-04-03T14:24:53;8.90;99.90
14057;DHT22;7103;54.300;10.180;2023-04-03T14:27:28;9.20;99.90
14057;DHT22;7103;54.300;10.180;2023-04-03T14:29:57;9.10;99.90
14057;DHT22;7103;54.300;10.180;2023-04-03T14:32:25;9.00;99.90
14057;DHT22;7103;54.300;10.180;2023-04-03T14:34:53;8.70;99.90
14057;DHT22;7103;54.300;10.180;2023-04-03T14:37:26;8.70;99.90
14057;DHT22;7103;54.300;10.180;2023-04-03T14:39:56;8.80;99.90
14057;DHT22;7103;54.300;10.180;2023-04-03T14:42:33;8.30;99.90
14057;DHT22;7103;54.300;10.180;2023-04-03T14:45:05;8.40;99.90
14057;DHT22;7103;54.300;10.180;2023-04-03T14:47:33;8.60;99.90
14057;DHT22;7103;54.300;10.180;2023-04-03T14:50:03;8.50;99.90
14057;DHT22;7103;54.300;10.180;2023-04-03T14:52:34;8.60;99.90
14057;DHT22;7103;54.300;10.180;2023-04-03T14:55:03;8.70;99.90
14057;DHT22;7103;54.300;10.180;2023-04-03T14:57:31;8.90;99.90
14057;DHT22;7103;54.300;10.180;2023-04-03T14:59:58;9.00;99.90
14057;DHT22;7103;54.300;10.180;2023-04-03T15:04:56;8.60;99.90
14057;DHT22;7103;54.300;10.180;2023-04-03T15:07:26;8.50;99.90
14057;DHT22;7103;54.300;10.180;2023-04-03T15:09:54;8.50;99.90
14057;DHT22;7103;54.300;10.180;2023-04-03T15:12:24;8.50;99.90
14057;DHT22;7103;54.300;10.180;2023-04-03T15:14:51;8.60;99.90
14057;DHT22;7103;54.300;10.180;2023-04-03T15:17:28;8.50;99.90
14057;DHT22;7103;54.300;10.180;2023-04-03T15:19:55;8.60;99.90
14057;DHT22;7103;54.300;10.180;2023-04-03T15:22:22;8.60;99.90
14057;DHT22;7103;54.300;10.180;2023-04-03T15:24:49;8.70;99.90
14057;DHT22;7103;54.300;10.180;2023-04-03T15:27:16;8.70;99.90
14057;DHT22;7103;54.300;10.180;2023-04-03T15:29:44;8.70;99.90
14057;DHT22;7103;54.300;10.180;2023-04-03T15:32:12;8.60;99.90
14057;DHT22;7103;54.300;10.180;2023-04-03T15:34:39;8.50;99.90
14057;DHT22;7103;54.300;10.180;2023-04-03T15:37:06;8.30;99.90
14057;DHT22;7103;54.300;10.180;2023-04-03T15:39:33;8.40;99.90
14057;DHT22;7103;54.300;10.180;2023-04-03T15:42:00;8.40;99.90
14057;DHT22;7103;54.300;10.180;2023-04-03T15:44:33;8.50;99.90
14057;DHT22;7103;54.300;10.180;2023-04-03T15:47:01;8.80;99.90
14057;DHT22;7103;54.300;10.180;2023-04-03T15:49:29;8.60;99.90
14057;DHT22;7103;54.300;10.180;2023-04-03T15:51:56;8.50;99.90
14057;DHT22;7103;54.300;10.180;2023-04-03T15:54:23;8.40;99.90
14057;DHT22;7103;54.300;10.180;2023-04-03T15:56:52;8.20;99.90
14057;DHT22;7103;54.300;10.180;2023-04-03T15:59:19;8.20;99.90
14057;DHT22;7103;54.300;10.180;2023-04-03T16:01:47;8.30;99.90
14057;DHT22;7103;54.300;10.180;2023-04-03T16:04:15;8.30;1.00
14057;DHT22;7103;54.300;10.180;2023-04-03T16:06:43;8.20;99.90
14057;DHT22;7103;54.300;10.180;2023-04-03T16:09:10;8.10;99.90
14057;DHT22;7103;54.300;10.180;2023-04-03T16:11:37;8.10;99.90
14057;DHT22;7103;54.300;10.180;2023-04-03T16:14:07;8.00;99.90
14057;DHT22;7103;54.300;10.180;2023-04-03T16:16:34;7.80;99.90
14057;DHT22;7103;54.300;10.180;2023-04-03T16:19:02;8.00;1.00
14057;DHT22;7103;54.300;10.180;2023-04-03T16:21:29;8.10;1.00
14057;DHT22;7103;54.300;10.180;2023-04-03T16:24:00;8.20;1.00
14057;DHT22;7103;54.300;10.180;2023-04-03T16:26:28;8.20;1.00
14057;DHT22;7103;54.300;10.180;2023-04-03T16:28:55;8.30;1.00
14057;DHT22;7103;54.300;10.180;2023-04-03T16:31:22;8.20;1.00
14057;DHT22;7103;54.300;10.180;2023-04-03T16:33:49;8.10;1.00
14057;DHT22;7103;54.300;10.180;2023-04-03T16:36:16;8.20;1.00
14057;DHT22;7103;54.300;10.180;2023-04-03T16:38:44;8.30;1.00
14057;DHT22;7103;54.300;10.180;2023-04-03T16:41:10;8.20;1.00
14057;DHT22;7103;54.300;10.180;2023-04-03T16:43:37;8.20;1.00
14057;DHT22;7103;54.300;10.180;2023-04-03T16:46:04;8.40;1.00
14057;DHT22;7103;54.300;10.180;2023-04-03T16:48:31;8.40;1.00
14057;DHT22;7103;54.300;10.180;2023-04-03T16:50:59;8.00;1.00
14057;DHT22;7103;54.300;10.180;2023-04-03T16:53:26;8.10;1.00
14057;DHT22;7103;54.300;10.180;2023-04-03T16:55:54;8.10;1.00
14057;DHT22;7103;54.300;10.180;2023-04-03T16:58:21;8.00;1.00
14057;DHT22;7103;54.300;10.180;2023-04-03T17:00:50;8.00;1.00
14057;DHT22;7103;54.300;10.180;2023-04-03T17:03:17;7.90;1.00
14057;DHT22;7103;54.300;10.180;2023-04-03T17:05:47;8.00;1.00
14057;DHT22;7103;54.300;10.180;2023-04-03T17:08:15;7.90;1.00
14057;DHT22;7103;54.300;10.180;2023-04-03T17:10:42;8.00;1.00
14057;DHT22;7103;54.300;10.180;2023-04-03T17:13:09;7.90;1.00
14057;DHT22;7103;54.300;10.180;2023-04-03T17:15:36;7.80;1.00
14057;DHT22;7103;54.300;10.180;2023-04-03T17:18:03;7.70;1.00
14057;DHT22;7103;54.300;10.180;2023-04-03T17:20:30;7.60;1.00
14057;DHT22;7103;54.300;10.180;2023-04-03T17:23:00;7.40;1.00
14057;DHT22;7103;54.300;10.180;2023-04-03T17:25:27;7.40;1.00
14057;DHT22;7103;54.300;10.180;2023-04-03T17:27:54;7.50;1.00
14057;DHT22;7103;54.300;10.180;2023-04-03T17:30:21;7.40;1.00
14057;DHT22;7103;54.300;10.180;2023-04-03T17:32:48;7.50;1.00
14057;DHT22;7103;54.300;10.180;2023-04-03T17:35:15;7.40;1.00
14057;DHT22;7103;54.300;10.180;2023-04-03T17:37:42;7.10;1.00
14057;DHT22;7103;54.300;10.180;2023-04-03T17:40:09;7.10;1.00
14057;DHT22;7103;54.300;10.180;2023-04-03T17:42:39;7.10;1.00
14057;DHT22;7103;54.300;10.180;2023-04-03T17:45:07;7.10;1.00
14057;DHT22;7103;54.300;10.180;2023-04-03T17:47:34;7.00;1.00
14057;DHT22;7103;54.300;10.180;2023-04-03T17:50:01;7.00;1.00